sensor_id;sensor_type;location;lat;lon;timestamp;pressure;altitude;pressure_sealevel;temperature;humidity
70544;BME280;58097;48.364;-1.224;2023-09-08T00:00:40;99590.81;;;23.79;74.43
70544;BME280;58097;48.364;-1.224;2023-09-08T00:03:05;99600.38;;;23.78;74.53
70544;BME280;58097;48.364;-1.224;2023-09-08T00:05:31;99597.81;;;23.77;74.68
70544;BME280;58097;48.364;-1.224;2023-09-08T00:07:56;99599.78;;;23.76;74.66
70544;BME280;58097;48.364;-1.224;2023-09-08T00:10:22;99600.13;;;23.80;74.71
70544;BME280;58097;48.364;-1.224;2023-09-08T00:12:47;99602.69;;;23.82;74.50
70544;BME280;58097;48.364;-1.224;2023-09-08T00:15:12;99605.00;;;23.85;73.87
70544;BME280;58097;48.364;-1.224;2023-09-08T00:17:38;99609.53;;;23.86;74.05
70544;BME280;58097;48.364;-1.224;2023-09-08T00:20:05;99608.41;;;23.87;74.33
70544;BME280;58097;48.364;-1.224;2023-09-08T00:22:33;99603.63;;;23.87;74.11
70544;BME280;58097;48.364;-1.224;2023-09-08T00:24:59;99601.66;;;23.88;74.13
70544;BME280;58097;48.364;-1.224;2023-09-08T00:27:24;99603.38;;;23.89;74.12
70544;BME280;58097;48.364;-1.224;2023-09-08T00:29:49;99600.53;;;23.89;74.40
70544;BME280;58097;48.364;-1.224;2023-09-08T00:32:15;99600.53;;;23.89;73.79
70544;BME280;58097;48.364;-1.224;2023-09-08T00:34:41;99601.41;;;23.89;73.83
70544;BME280;58097;48.364;-1.224;2023-09-08T00:37:06;99598.84;;;23.88;73.96
70544;BME280;58097;48.364;-1.224;2023-09-08T00:39:34;99596.28;;;23.86;73.75
70544;BME280;58097;48.364;-1.224;2023-09-08T00:42:00;99597.63;;;23.84;74.04
70544;BME280;58097;48.364;-1.224;2023-09-08T00:44:25;99599.88;;;23.82;74.32
70544;BME280;58097;48.364;-1.224;2023-09-08T00:46:50;99599.00;;;23.81;74.33
70544;BME280;58097;48.364;-1.224;2023-09-08T00:49:16;99599.25;;;23.79;74.31
70544;BME280;58097;48.364;-1.224;2023-09-08T00:51:41;99597.56;;;23.78;74.12
70544;BME280;58097;48.364;-1.224;2023-09-08T00:54:08;99595.84;;;23.77;73.94
70544;BME280;58097;48.364;-1.224;2023-09-08T00:56:34;99601.22;;;23.79;73.96
70544;BME280;58097;48.364;-1.224;2023-09-08T00:59:02;99605.16;;;23.78;74.32
70544;BME280;58097;48.364;-1.224;2023-09-08T01:01:28;99602.59;;;23.76;74.22
70544;BME280;58097;48.364;-1.224;2023-09-08T01:03:53;99601.75;;;23.76;74.44
70544;BME280;58097;48.364;-1.224;2023-09-08T01:06:18;99596.09;;;23.76;74.52
70544;BME280;58097;48.364;-1.224;2023-09-08T01:08:44;99597.81;;;23.77;74.30
70544;BME280;58097;48.364;-1.224;2023-09-08T01:11:10;99598.66;;;23.77;74.71
70544;BME280;58097;48.364;-1.224;2023-09-08T01:13:36;99595.00;;;23.77;74.60
70544;BME280;58097;48.364;-1.224;2023-09-08T01:16:01;99591.31;;;23.76;74.32
70544;BME280;58097;48.364;-1.224;2023-09-08T01:18:27;99590.47;;;23.76;74.59
70544;BME280;58097;48.364;-1.224;2023-09-08T01:21:02;99595.25;;;23.75;74.87
70544;BME280;58097;48.364;-1.224;2023-09-08T01:26:36;99583.38;;;23.73;74.89
70544;BME280;58097;48.364;-1.224;2023-09-08T01:29:02;99584.22;;;23.74;74.83
70544;BME280;58097;48.364;-1.224;2023-09-08T01:31:28;99583.38;;;23.73;74.79
70544;BME280;58097;48.364;-1.224;2023-09-08T01:33:54;99583.63;;;23.72;74.88
70544;BME280;58097;48.364;-1.224;2023-09-08T01:36:20;99587.28;;;23.72;74.99
70544;BME280;58097;48.364;-1.224;2023-09-08T01:38:45;99588.41;;;23.71;74.75
70544;BME280;58097;48.364;-1.224;2023-09-08T01:41:10;99594.28;;;23.70;75.13
70544;BME280;58097;48.364;-1.224;2023-09-08T01:43:36;99587.19;;;23.67;75.08
70544;BME280;58097;48.364;-1.224;2023-09-08T01:46:01;99583.75;;;23.65;75.09
70544;BME280;58097;48.364;-1.224;2023-09-08T01:48:26;99585.72;;;23.65;75.26
70544;BME280;58097;48.364;-1.224;2023-09-08T01:50:52;99581.19;;;23.64;75.12
70544;BME280;58097;48.364;-1.224;2023-09-08T01:53:17;99576.66;;;23.63;75.11
70544;BME280;58097;48.364;-1.224;2023-09-08T01:55:43;99585.38;;;23.61;75.29
70544;BME280;58097;48.364;-1.224;2023-09-08T01:58:08;99584.78;;;23.59;75.32
70544;BME280;58097;48.364;-1.224;2023-09-08T02:00:33;99577.69;;;23.57;75.71
70544;BME280;58097;48.364;-1.224;2023-09-08T02:02:59;99576.84;;;23.56;75.81
70544;BME280;58097;48.364;-1.224;2023-09-08T02:05:24;99579.88;;;23.55;75.80
70544;BME280;58097;48.364;-1.224;2023-09-08T02:07:51;99572.78;;;23.52;75.84
70544;BME280;58097;48.364;-1.224;2023-09-08T02:10:17;99579.53;;;23.51;75.91
70544;BME280;58097;48.364;-1.224;2023-09-08T02:12:43;99579.53;;;23.51;76.14
70544;BME280;58097;48.364;-1.224;2023-09-08T02:15:08;99578.06;;;23.48;76.21
70544;BME280;58097;48.364;-1.224;2023-09-08T02:17:36;99582.00;;;23.47;76.35
70544;BME280;58097;48.364;-1.224;2023-09-08T02:20:01;99593.53;;;23.46;76.37
70544;BME280;58097;48.364;-1.224;2023-09-08T02:22:27;99591.22;;;23.43;76.28
70544;BME280;58097;48.364;-1.224;2023-09-08T02:24:53;99587.78;;;23.41;76.27
70544;BME280;58097;48.364;-1.224;2023-09-08T02:27:18;99597.34;;;23.40;76.59
70544;BME280;58097;48.364;-1.224;2023-09-08T02:29:44;99598.47;;;23.39;76.73
70544;BME280;58097;48.364;-1.224;2023-09-08T02:32:09;99597.00;;;23.36;76.57
70544;BME280;58097;48.364;-1.224;2023-09-08T02:34:35;99587.09;;;23.34;76.46
70544;BME280;58097;48.364;-1.224;2023-09-08T02:37:02;99589.06;;;23.33;76.26
70544;BME280;58097;48.364;-1.224;2023-09-08T02:39:27;99590.16;;;23.32;76.24
70544;BME280;58097;48.364;-1.224;2023-09-08T02:41:53;99591.88;;;23.33;76.12
70544;BME280;58097;48.364;-1.224;2023-09-08T02:44:20;99596.66;;;23.33;76.25
70544;BME280;58097;48.364;-1.224;2023-09-08T02:46:47;99589.31;;;23.32;76.25
70544;BME280;58097;48.364;-1.224;2023-09-08T02:49:12;99587.59;;;23.31;76.63
70544;BME280;58097;48.364;-1.224;2023-09-08T02:51:37;99587.00;;;23.29;76.45
70544;BME280;58097;48.364;-1.224;2023-09-08T02:54:03;99589.22;;;23.27;76.88
70544;BME280;58097;48.364;-1.224;2023-09-08T02:56:28;99591.19;;;23.26;76.87
70544;BME280;58097;48.364;-1.224;2023-09-08T02:58:54;99582.72;;;23.26;76.96
70544;BME280;58097;48.364;-1.224;2023-09-08T03:01:19;99581.59;;;23.27;76.76
70544;BME280;58097;48.364;-1.224;2023-09-08T03:03:46;99581.59;;;23.27;76.92
70544;BME280;58097;48.364;-1.224;2023-09-08T03:06:14;99583.47;;;23.22;76.70
70544;BME280;58097;48.364;-1.224;2023-09-08T03:08:40;99576.88;;;23.16;76.82
70544;BME280;58097;48.364;-1.224;2023-09-08T03:11:05;99579.31;;;23.12;77.30
70544;BME280;58097;48.364;-1.224;2023-09-08T03:13:35;99583.75;;;23.08;77.52
70544;BME280;58097;48.364;-1.224;2023-09-08T03:16:04;99578.28;;;23.02;77.21
70544;BME280;58097;48.364;-1.224;2023-09-08T03:18:30;99575.09;;;22.98;77.28
70544;BME280;58097;48.364;-1.224;2023-09-08T03:20:57;99573.91;;;22.94;77.35
70544;BME280;58097;48.364;-1.224;2023-09-08T03:23:23;99575.50;;;22.90;77.33
70544;BME280;58097;48.364;-1.224;2023-09-08T03:25:48;99568.16;;;22.89;77.40
70544;BME280;58097;48.364;-1.224;2023-09-08T03:28:14;99567.31;;;22.89;77.57
70544;BME280;58097;48.364;-1.224;2023-09-08T03:30:40;99571.22;;;22.88;77.54
70544;BME280;58097;48.364;-1.224;2023-09-08T03:33:05;99570.84;;;22.84;77.52
70544;BME280;58097;48.364;-1.224;2023-09-08T03:35:30;99561.16;;;22.80;77.83
70544;BME280;58097;48.364;-1.224;2023-09-08T03:37:56;99561.78;;;22.82;77.85
70544;BME280;58097;48.364;-1.224;2023-09-08T03:40:21;99557.88;;;22.83;77.89
70544;BME280;58097;48.364;-1.224;2023-09-08T03:42:46;99563.28;;;22.84;77.98
70544;BME280;58097;48.364;-1.224;2023-09-08T03:45:12;99562.19;;;22.85;78.21
70544;BME280;58097;48.364;-1.224;2023-09-08T03:47:37;99558.25;;;22.86;78.27
70544;BME280;58097;48.364;-1.224;2023-09-08T03:50:02;99560.81;;;22.88;78.25
70544;BME280;58097;48.364;-1.224;2023-09-08T03:52:28;99558.00;;;22.88;78.59
70544;BME280;58097;48.364;-1.224;2023-09-08T03:54:53;99564.50;;;22.89;78.96
70544;BME280;58097;48.364;-1.224;2023-09-08T03:57:18;99564.75;;;22.87;78.91
70544;BME280;58097;48.364;-1.224;2023-09-08T03:59:44;99561.06;;;22.86;78.92
70544;BME280;58097;48.364;-1.224;2023-09-08T04:02:09;99561.31;;;22.85;78.62
70544;BME280;58097;48.364;-1.224;2023-09-08T04:04:34;99563.50;;;22.83;78.81
70544;BME280;58097;48.364;-1.224;2023-09-08T04:07:00;99557.47;;;22.79;78.87
70544;BME280;58097;48.364;-1.224;2023-09-08T04:09:25;99558.22;;;22.75;78.45
70544;BME280;58097;48.364;-1.224;2023-09-08T04:11:52;99558.75;;;22.72;78.35
70544;BME280;58097;48.364;-1.224;2023-09-08T04:14:17;99557.88;;;22.71;78.84
70544;BME280;58097;48.364;-1.224;2023-09-08T04:16:43;99559.25;;;22.69;78.85
70544;BME280;58097;48.364;-1.224;2023-09-08T04:19:08;99555.81;;;22.67;78.64
70544;BME280;58097;48.364;-1.224;2023-09-08T04:21:33;99553.84;;;22.67;79.00
70544;BME280;58097;48.364;-1.224;2023-09-08T04:23:59;99555.56;;;22.68;79.14
70544;BME280;58097;48.364;-1.224;2023-09-08T04:26:24;99555.56;;;22.68;78.93
70544;BME280;58097;48.364;-1.224;2023-09-08T04:28:50;99567.69;;;22.69;79.04
70544;BME280;58097;48.364;-1.224;2023-09-08T04:31:15;99565.72;;;22.69;79.14
70544;BME280;58097;48.364;-1.224;2023-09-08T04:33:41;99554.22;;;22.71;79.02
70544;BME280;58097;48.364;-1.224;2023-09-08T04:36:07;99555.06;;;22.71;79.21
70544;BME280;58097;48.364;-1.224;2023-09-08T04:38:32;99552.00;;;22.73;79.52
70544;BME280;58097;48.364;-1.224;2023-09-08T04:40:57;99564.97;;;22.74;79.25
70544;BME280;58097;48.364;-1.224;2023-09-08T04:43:23;99553.72;;;22.74;79.51
70544;BME280;58097;48.364;-1.224;2023-09-08T04:45:48;99549.78;;;22.75;79.33
70544;BME280;58097;48.364;-1.224;2023-09-08T04:48:13;99553.72;;;22.74;79.72
70544;BME280;58097;48.364;-1.224;2023-09-08T04:50:39;99559.34;;;22.74;79.41
70544;BME280;58097;48.364;-1.224;2023-09-08T04:53:04;99550.03;;;22.73;79.27
70544;BME280;58097;48.364;-1.224;2023-09-08T04:55:29;99554.81;;;22.73;79.03
70544;BME280;58097;48.364;-1.224;2023-09-08T04:57:54;99559.00;;;22.70;79.29
70544;BME280;58097;48.364;-1.224;2023-09-08T05:00:20;99557.53;;;22.68;79.53
70544;BME280;58097;48.364;-1.224;2023-09-08T05:02:45;99556.91;;;22.66;79.63
70544;BME280;58097;48.364;-1.224;2023-09-08T05:05:11;99558.88;;;22.65;79.93
70544;BME280;58097;48.364;-1.224;2023-09-08T05:07:36;99560.25;;;22.63;79.71
70544;BME280;58097;48.364;-1.224;2023-09-08T05:10:02;99566.38;;;22.60;79.29
70544;BME280;58097;48.364;-1.224;2023-09-08T05:12:27;99566.63;;;22.58;79.20
70544;BME280;58097;48.364;-1.224;2023-09-08T05:14:53;99566.22;;;22.54;79.26
70544;BME280;58097;48.364;-1.224;2023-09-08T05:17:23;99574.06;;;22.52;79.65
70544;BME280;58097;48.364;-1.224;2023-09-08T05:19:48;99570.66;;;22.50;79.71
70544;BME280;58097;48.364;-1.224;2023-09-08T05:22:14;99576.78;;;22.47;79.84
70544;BME280;58097;48.364;-1.224;2023-09-08T05:24:39;99567.72;;;22.45;79.95
70544;BME280;58097;48.364;-1.224;2023-09-08T05:27:04;99575.94;;;22.47;79.57
70544;BME280;58097;48.364;-1.224;2023-09-08T05:29:30;99579.84;;;22.46;79.57
70544;BME280;58097;48.364;-1.224;2023-09-08T05:31:55;99576.41;;;22.44;79.47
70544;BME280;58097;48.364;-1.224;2023-09-08T05:34:20;99575.56;;;22.43;79.57
70544;BME280;58097;48.364;-1.224;2023-09-08T05:36:46;99574.97;;;22.41;79.70
70544;BME280;58097;48.364;-1.224;2023-09-08T05:39:11;99577.78;;;22.41;79.87
70544;BME280;58097;48.364;-1.224;2023-09-08T05:41:38;99576.91;;;22.41;80.19
70544;BME280;58097;48.364;-1.224;2023-09-08T05:44:04;99575.19;;;22.40;80.48
70544;BME280;58097;48.364;-1.224;2023-09-08T05:46:29;99574.59;;;22.38;80.50
70544;BME280;58097;48.364;-1.224;2023-09-08T05:48:55;99580.47;;;22.36;80.28
70544;BME280;58097;48.364;-1.224;2023-09-08T05:51:20;99579.00;;;22.34;80.57
70544;BME280;58097;48.364;-1.224;2023-09-08T05:53:45;99573.63;;;22.32;80.91
70544;BME280;58097;48.364;-1.224;2023-09-08T05:56:11;99576.19;;;22.34;80.88
70544;BME280;58097;48.364;-1.224;2023-09-08T05:58:36;99584.41;;;22.35;80.90
70544;BME280;58097;48.364;-1.224;2023-09-08T06:01:03;99581.34;;;22.37;81.03
70544;BME280;58097;48.364;-1.224;2023-09-08T06:03:29;99583.03;;;22.38;80.90
70544;BME280;58097;48.364;-1.224;2023-09-08T06:05:55;99579.97;;;22.39;81.01
70544;BME280;58097;48.364;-1.224;2023-09-08T06:08:21;99573.00;;;22.42;81.25
70544;BME280;58097;48.364;-1.224;2023-09-08T06:10:46;99580.94;;;22.45;81.33
70544;BME280;58097;48.364;-1.224;2023-09-08T06:13:12;99590.59;;;22.49;81.51
70544;BME280;58097;48.364;-1.224;2023-09-08T06:15:37;99593.78;;;22.52;81.93
70544;BME280;58097;48.364;-1.224;2023-09-08T06:18:02;99590.50;;;22.55;81.56
70544;BME280;58097;48.364;-1.224;2023-09-08T06:20:28;99597.34;;;22.60;82.13
70544;BME280;58097;48.364;-1.224;2023-09-08T06:22:53;99599.06;;;22.61;82.07
70544;BME280;58097;48.364;-1.224;2023-09-08T06:25:19;99598.81;;;22.62;82.03
70544;BME280;58097;48.364;-1.224;2023-09-08T06:27:44;99605.91;;;22.65;82.39
70544;BME280;58097;48.364;-1.224;2023-09-08T06:30:10;99611.41;;;22.71;82.63
70544;BME280;58097;48.364;-1.224;2023-09-08T06:32:35;99609.19;;;22.73;82.63
70544;BME280;58097;48.364;-1.224;2023-09-08T06:35:01;99606.13;;;22.75;82.74
70544;BME280;58097;48.364;-1.224;2023-09-08T06:37:26;99607.34;;;22.79;82.92
70544;BME280;58097;48.364;-1.224;2023-09-08T06:39:54;99607.00;;;22.87;83.20
70544;BME280;58097;48.364;-1.224;2023-09-08T06:42:19;99606.50;;;22.90;83.03
70544;BME280;58097;48.364;-1.224;2023-09-08T06:44:45;99608.56;;;22.95;82.78
70544;BME280;58097;48.364;-1.224;2023-09-08T06:47:10;99600.47;;;22.98;82.98
70544;BME280;58097;48.364;-1.224;2023-09-08T06:49:35;99599.72;;;23.03;83.50
70544;BME280;58097;48.364;-1.224;2023-09-08T06:52:01;99606.44;;;23.13;83.55
70544;BME280;58097;48.364;-1.224;2023-09-08T06:54:26;99598.69;;;23.21;83.41
70544;BME280;58097;48.364;-1.224;2023-09-08T06:56:51;99598.00;;;23.30;83.42
70544;BME280;58097;48.364;-1.224;2023-09-08T06:59:17;99604.59;;;23.36;83.31
70544;BME280;58097;48.364;-1.224;2023-09-08T07:01:42;99608.50;;;23.46;83.24
70544;BME280;58097;48.364;-1.224;2023-09-08T07:04:07;99608.25;;;23.48;82.68
70544;BME280;58097;48.364;-1.224;2023-09-08T07:06:33;99613.38;;;23.51;82.76
70544;BME280;58097;48.364;-1.224;2023-09-08T07:08:59;99610.56;;;23.51;83.65
70544;BME280;58097;48.364;-1.224;2023-09-08T07:11:25;99619.00;;;23.51;82.91
70544;BME280;58097;48.364;-1.224;2023-09-08T07:13:51;99608.00;;;23.49;83.13
70544;BME280;58097;48.364;-1.224;2023-09-08T07:16:17;99612.78;;;23.49;83.38
70544;BME280;58097;48.364;-1.224;2023-09-08T07:18:42;99611.41;;;23.52;83.27
70544;BME280;58097;48.364;-1.224;2023-09-08T07:21:07;99613.59;;;23.61;83.06
70544;BME280;58097;48.364;-1.224;2023-09-08T07:23:33;99612.56;;;23.67;83.27
70544;BME280;58097;48.364;-1.224;2023-09-08T07:26:00;99623.47;;;23.75;83.45
70544;BME280;58097;48.364;-1.224;2023-09-08T07:28:25;99616.97;;;23.92;84.89
70544;BME280;58097;48.364;-1.224;2023-09-08T07:30:50;99622.88;;;24.07;84.66
70544;BME280;58097;48.364;-1.224;2023-09-08T07:33:16;99625.88;;;24.17;84.55
70544;BME280;58097;48.364;-1.224;2023-09-08T07:35:42;99637.47;;;24.32;85.25
70544;BME280;58097;48.364;-1.224;2023-09-08T07:38:07;99622.44;;;24.49;84.39
70544;BME280;58097;48.364;-1.224;2023-09-08T07:40:33;99629.38;;;24.58;84.17
70544;BME280;58097;48.364;-1.224;2023-09-08T07:42:59;99621.06;;;24.68;83.89
70544;BME280;58097;48.364;-1.224;2023-09-08T07:45:25;99630.78;;;24.77;83.89
70544;BME280;58097;48.364;-1.224;2023-09-08T07:47:50;99629.41;;;24.80;83.74
70544;BME280;58097;48.364;-1.224;2023-09-08T07:50:24;99628.63;;;24.84;83.37
70544;BME280;58097;48.364;-1.224;2023-09-08T07:52:51;99633.84;;;24.92;83.44
70544;BME280;58097;48.364;-1.224;2023-09-08T07:55:17;99637.69;;;25.03;83.63
70544;BME280;58097;48.364;-1.224;2023-09-08T07:57:43;99626.75;;;25.12;83.33
70544;BME280;58097;48.364;-1.224;2023-09-08T08:00:10;99632.50;;;25.17;83.13
70544;BME280;58097;48.364;-1.224;2023-09-08T08:02:42;99633.47;;;25.27;83.70
70544;BME280;58097;48.364;-1.224;2023-09-08T08:05:09;99629.38;;;25.40;83.65
70544;BME280;58097;48.364;-1.224;2023-09-08T08:07:34;99639.22;;;25.59;83.59
70544;BME280;58097;48.364;-1.224;2023-09-08T08:10:00;99631.72;;;25.70;84.06
70544;BME280;58097;48.364;-1.224;2023-09-08T08:12:25;99632.94;;;25.79;83.88
70544;BME280;58097;48.364;-1.224;2023-09-08T08:14:51;99635.59;;;25.91;83.44
70544;BME280;58097;48.364;-1.224;2023-09-08T08:17:16;99638.28;;;26.03;83.47
70544;BME280;58097;48.364;-1.224;2023-09-08T08:19:43;99637.56;;;26.17;84.07
70544;BME280;58097;48.364;-1.224;2023-09-08T08:22:08;99643.88;;;26.30;82.87
70544;BME280;58097;48.364;-1.224;2023-09-08T08:24:34;99641.75;;;26.42;83.10
70544;BME280;58097;48.364;-1.224;2023-09-08T08:26:59;99635.59;;;26.55;82.89
70544;BME280;58097;48.364;-1.224;2023-09-08T08:29:28;99645.03;;;26.66;82.54
70544;BME280;58097;48.364;-1.224;2023-09-08T08:31:53;99643.91;;;26.67;82.17
70544;BME280;58097;48.364;-1.224;2023-09-08T08:34:19;99644.25;;;26.75;81.86
70544;BME280;58097;48.364;-1.224;2023-09-08T08:36:44;99649.94;;;26.80;81.58
70544;BME280;58097;48.364;-1.224;2023-09-08T08:39:09;99650.81;;;26.86;81.58
70544;BME280;58097;48.364;-1.224;2023-09-08T08:41:35;99648.97;;;27.02;78.67
70544;BME280;58097;48.364;-1.224;2023-09-08T08:44:06;99651.09;;;27.27;79.43
70544;BME280;58097;48.364;-1.224;2023-09-08T08:46:33;99651.97;;;27.42;76.21
70544;BME280;58097;48.364;-1.224;2023-09-08T08:49:01;99654.09;;;27.67;77.29
70544;BME280;58097;48.364;-1.224;2023-09-08T08:51:28;99655.84;;;27.89;72.98
70544;BME280;58097;48.364;-1.224;2023-09-08T08:53:55;99661.25;;;27.95;74.52
70544;BME280;58097;48.364;-1.224;2023-09-08T08:56:21;99662.94;;;27.96;72.87
70544;BME280;58097;48.364;-1.224;2023-09-08T08:58:47;99666.06;;;27.85;72.55
70544;BME280;58097;48.364;-1.224;2023-09-08T09:01:15;99672.59;;;28.00;75.13
70544;BME280;58097;48.364;-1.224;2023-09-08T09:04:08;99665.53;;;28.08;73.43
70544;BME280;58097;48.364;-1.224;2023-09-08T09:07:45;99674.38;;;28.27;74.68
70544;BME280;58097;48.364;-1.224;2023-09-08T09:10:11;99677.25;;;28.37;73.09
70544;BME280;58097;48.364;-1.224;2023-09-08T09:12:37;99677.25;;;28.37;72.63
70544;BME280;58097;48.364;-1.224;2023-09-08T09:15:03;99670.13;;;28.45;73.08
70544;BME280;58097;48.364;-1.224;2023-09-08T09:17:32;99676.09;;;28.38;68.14
70544;BME280;58097;48.364;-1.224;2023-09-08T09:20:15;99675.25;;;28.37;70.38
70544;BME280;58097;48.364;-1.224;2023-09-08T09:22:43;99682.91;;;28.32;68.62
70544;BME280;58097;48.364;-1.224;2023-09-08T09:25:09;99683.44;;;28.08;67.59
70544;BME280;58097;48.364;-1.224;2023-09-08T09:27:35;99673.78;;;28.10;70.00
70544;BME280;58097;48.364;-1.224;2023-09-08T09:30:03;99668.66;;;28.12;70.63
70544;BME280;58097;48.364;-1.224;2023-09-08T09:32:29;99678.34;;;28.26;71.54
70544;BME280;58097;48.364;-1.224;2023-09-08T09:34:57;99666.44;;;28.39;72.48
70544;BME280;58097;48.364;-1.224;2023-09-08T09:37:23;99672.69;;;28.46;67.93
70544;BME280;58097;48.364;-1.224;2023-09-08T09:39:52;99677.50;;;28.56;71.73
70544;BME280;58097;48.364;-1.224;2023-09-08T09:42:18;99677.22;;;28.73;69.21
70544;BME280;58097;48.364;-1.224;2023-09-08T09:44:47;99670.97;;;28.86;66.65
70544;BME280;58097;48.364;-1.224;2023-09-08T09:47:13;99669.25;;;29.00;70.98
70544;BME280;58097;48.364;-1.224;2023-09-08T09:49:46;99676.56;;;29.16;71.83
70544;BME280;58097;48.364;-1.224;2023-09-08T09:52:12;99671.13;;;29.30;71.16
70544;BME280;58097;48.364;-1.224;2023-09-08T09:54:42;99667.94;;;29.42;71.04
70544;BME280;58097;48.364;-1.224;2023-09-08T09:57:11;99659.97;;;29.44;70.72
70544;BME280;58097;48.364;-1.224;2023-09-08T09:59:38;99666.81;;;29.48;71.12
70544;BME280;58097;48.364;-1.224;2023-09-08T10:02:13;99672.50;;;29.53;71.50
70544;BME280;58097;48.364;-1.224;2023-09-08T10:04:40;99652.84;;;29.56;71.10
70544;BME280;58097;48.364;-1.224;2023-09-08T10:07:06;99654.28;;;29.54;71.23
70544;BME280;58097;48.364;-1.224;2023-09-08T10:09:32;99655.34;;;29.63;70.70
70544;BME280;58097;48.364;-1.224;2023-09-08T10:12:01;99649.06;;;29.66;70.71
70544;BME280;58097;48.364;-1.224;2023-09-08T10:14:28;99644.19;;;29.72;69.88
70544;BME280;58097;48.364;-1.224;2023-09-08T10:16:56;99656.97;;;29.79;70.72
70544;BME280;58097;48.364;-1.224;2023-09-08T10:19:24;99658.38;;;29.82;70.97
70544;BME280;58097;48.364;-1.224;2023-09-08T10:21:51;99664.31;;;29.90;70.26
70544;BME280;58097;48.364;-1.224;2023-09-08T10:24:24;99660.00;;;29.93;70.61
70544;BME280;58097;48.364;-1.224;2023-09-08T10:26:58;99659.75;;;29.89;70.20
70544;BME280;58097;48.364;-1.224;2023-09-08T10:29:27;99656.69;;;29.76;67.74
70544;BME280;58097;48.364;-1.224;2023-09-08T10:31:55;99660.47;;;29.66;68.78
70544;BME280;58097;48.364;-1.224;2023-09-08T10:34:22;99653.41;;;29.48;67.20
70544;BME280;58097;48.364;-1.224;2023-09-08T10:36:49;99660.56;;;29.51;67.31
70544;BME280;58097;48.364;-1.224;2023-09-08T10:47:23;99661.72;;;29.35;67.78
70544;BME280;58097;48.364;-1.224;2023-09-08T10:49:50;99655.41;;;29.48;69.95
70544;BME280;58097;48.364;-1.224;2023-09-08T10:52:21;99650.78;;;29.67;70.43
70544;BME280;58097;48.364;-1.224;2023-09-08T10:54:50;99658.59;;;29.90;68.11
70544;BME280;58097;48.364;-1.224;2023-09-08T10:57:17;99658.28;;;29.97;66.37
70544;BME280;58097;48.364;-1.224;2023-09-08T10:59:58;99655.69;;;30.01;68.30
70544;BME280;58097;48.364;-1.224;2023-09-08T11:02:41;99654.22;;;30.13;69.13
70544;BME280;58097;48.364;-1.224;2023-09-08T11:05:13;99655.47;;;30.36;69.48
70544;BME280;58097;48.364;-1.224;2023-09-08T11:07:40;99650.09;;;30.64;69.60
70544;BME280;58097;48.364;-1.224;2023-09-08T11:10:07;99643.53;;;30.92;68.51
70544;BME280;58097;48.364;-1.224;2023-09-08T11:12:33;99642.97;;;31.19;68.57
70544;BME280;58097;48.364;-1.224;2023-09-08T11:14:59;99649.34;;;31.35;66.38
70544;BME280;58097;48.364;-1.224;2023-09-08T11:17:33;99644.78;;;31.34;67.96
70544;BME280;58097;48.364;-1.224;2023-09-08T11:19:59;99641.22;;;31.23;67.77
70544;BME280;58097;48.364;-1.224;2023-09-08T11:22:25;99645.66;;;31.05;67.92
70544;BME280;58097;48.364;-1.224;2023-09-08T11:24:52;99648.06;;;30.93;67.72
70544;BME280;58097;48.364;-1.224;2023-09-08T11:27:18;99655.91;;;30.82;67.81
70544;BME280;58097;48.364;-1.224;2023-09-08T11:29:44;99648.06;;;30.69;68.26
70544;BME280;58097;48.364;-1.224;2023-09-08T11:32:10;99650.13;;;30.59;68.18
70544;BME280;58097;48.364;-1.224;2023-09-08T11:34:36;99658.41;;;30.55;67.57
70544;BME280;58097;48.364;-1.224;2023-09-08T11:37:15;99657.38;;;30.46;68.53
70544;BME280;58097;48.364;-1.224;2023-09-08T11:39:43;99663.91;;;30.46;66.79
70544;BME280;58097;48.364;-1.224;2023-09-08T11:42:11;99663.91;;;30.46;66.59
70544;BME280;58097;48.364;-1.224;2023-09-08T11:44:37;99668.47;;;30.47;66.04
70544;BME280;58097;48.364;-1.224;2023-09-08T11:47:03;99670.19;;;30.48;67.32
70544;BME280;58097;48.364;-1.224;2023-09-08T11:49:40;99667.03;;;30.50;67.64
70544;BME280;58097;48.364;-1.224;2023-09-08T11:52:06;99669.88;;;30.50;68.37
70544;BME280;58097;48.364;-1.224;2023-09-08T11:54:33;99671.53;;;30.56;68.13
70544;BME280;58097;48.364;-1.224;2023-09-08T11:57:00;99670.63;;;30.66;68.68
70544;BME280;58097;48.364;-1.224;2023-09-08T11:59:28;99676.53;;;30.74;68.77
70544;BME280;58097;48.364;-1.224;2023-09-08T12:01:55;99675.06;;;30.77;67.88
70544;BME280;58097;48.364;-1.224;2023-09-08T12:04:22;99670.81;;;30.74;67.61
70544;BME280;58097;48.364;-1.224;2023-09-08T12:06:52;99668.28;;;30.73;67.41
70544;BME280;58097;48.364;-1.224;2023-09-08T12:09:19;99668.28;;;30.73;66.95
70544;BME280;58097;48.364;-1.224;2023-09-08T12:11:45;99667.19;;;30.69;68.01
70544;BME280;58097;48.364;-1.224;2023-09-08T12:14:12;99659.22;;;30.66;68.04
70544;BME280;58097;48.364;-1.224;2023-09-08T12:16:38;99662.66;;;30.63;67.27
70544;BME280;58097;48.364;-1.224;2023-09-08T12:19:04;99659.25;;;30.56;66.66
70544;BME280;58097;48.364;-1.224;2023-09-08T12:21:30;99663.03;;;30.51;66.99
70544;BME280;58097;48.364;-1.224;2023-09-08T12:23:57;99664.28;;;30.40;66.15
70544;BME280;58097;48.364;-1.224;2023-09-08T12:26:26;99660.97;;;30.23;66.92
70544;BME280;58097;48.364;-1.224;2023-09-08T12:28:51;99651.69;;;30.02;65.51
70544;BME280;58097;48.364;-1.224;2023-09-08T12:31:17;99660.31;;;29.91;66.97
70544;BME280;58097;48.364;-1.224;2023-09-08T12:33:43;99660.31;;;29.91;67.62
70544;BME280;58097;48.364;-1.224;2023-09-08T12:36:16;99659.72;;;29.95;67.86
70544;BME280;58097;48.364;-1.224;2023-09-08T12:38:50;99660.53;;;30.00;67.75
70544;BME280;58097;48.364;-1.224;2023-09-08T12:41:16;99661.75;;;29.89;68.07
70544;BME280;58097;48.364;-1.224;2023-09-08T12:43:42;99659.44;;;29.96;68.04
70544;BME280;58097;48.364;-1.224;2023-09-08T12:46:07;99663.66;;;30.04;67.72
70544;BME280;58097;48.364;-1.224;2023-09-08T12:48:33;99658.81;;;30.09;67.97
70544;BME280;58097;48.364;-1.224;2023-09-08T12:50:58;99659.88;;;30.18;68.30
70544;BME280;58097;48.364;-1.224;2023-09-08T12:53:23;99656.22;;;30.13;66.92
70544;BME280;58097;48.364;-1.224;2023-09-08T12:55:49;99655.38;;;30.02;67.94
70544;BME280;58097;48.364;-1.224;2023-09-08T12:58:17;99653.69;;;30.06;67.78